Time;durP1;ratioP1;P1;durP2;ratioP2;P2;SDS_P1;SDS_P2;PMS_P1;PMS_P2;Temp;Humidity;BMP_temperature;BMP_pressure;BME280_temperature;BME280_humidity;BME280_pressure;Samples;Min_cycle;Max_cycle;Signal;HPM_P1;HPM_P2
2023/09/24 00:01:00;;;;;;;1.63;1.50;;;;;;;10.61;72.36;99602.44;5110441;28;41261;-81
2023/09/24 00:03:28;;;;;;;2.67;1.67;;;;;;;10.47;72.61;99589.91;5094088;28;38911;-81
2023/09/24 00:05:58;;;;;;;1.63;1.53;;;;;;;10.60;72.72;99619.28;5093674;28;40696;-82
2023/09/24 00:08:25;;;;;;;2.03;1.50;;;;;;;10.52;72.93;99605.53;5110757;28;41897;-81
2023/09/24 00:10:55;;;;;;;2.47;2.27;;;;;;;10.55;74.03;99610.69;5110950;28;42422;-81
2023/09/24 00:13:23;;;;;;;2.17;1.97;;;;;;;10.53;74.46;99617.84;5111851;28;39042;-81
2023/09/24 00:15:51;;;;;;;2.30;2.10;;;;;;;10.57;74.02;99624.72;5112788;28;41740;-81
2023/09/24 00:18:19;;;;;;;2.00;1.80;;;;;;;10.55;74.24;99623.94;5111496;27;41529;-81
2023/09/24 00:20:47;;;;;;;2.40;1.73;;;;;;;10.51;73.96;99614.44;5097270;28;41039;-82
2023/09/24 00:23:15;;;;;;;2.17;1.67;;;;;;;10.52;74.03;99626.72;5115561;27;40964;-82
2023/09/24 00:25:44;;;;;;;2.33;1.53;;;;;;;10.53;73.73;99631.09;5098071;28;42048;-81
2023/09/24 00:28:13;;;;;;;2.50;1.80;;;;;;;10.40;73.64;99613.16;5097950;28;42129;-82
2023/09/24 00:30:42;;;;;;;3.07;1.40;;;;;;;10.44;73.31;99625.31;5097873;28;41668;-81
2023/09/24 00:33:10;;;;;;;1.57;1.30;;;;;;;10.47;73.65;99631.41;5098017;28;38915;-82
2023/09/24 00:35:37;;;;;;;1.90;1.43;;;;;;;10.39;73.46;99626.47;5116093;28;41831;-82
2023/09/24 00:38:07;;;;;;;1.30;1.13;;;;;;;10.40;73.32;99633.50;5097812;28;43117;-83
2023/09/24 00:40:35;;;;;;;1.43;1.33;;;;;;;10.36;73.48;99637.25;5097540;28;43782;-81
2023/09/24 00:43:02;;;;;;;1.60;1.50;;;;;;;10.32;73.16;99631.22;5096388;28;38905;-81
2023/09/24 00:45:32;;;;;;;1.90;1.43;;;;;;;10.29;73.32;99630.50;5114766;28;41732;-81
2023/09/24 00:48:01;;;;;;;1.40;1.20;;;;;;;10.21;73.17;99633.56;5096652;28;41735;-81
2023/09/24 00:50:33;;;;;;;1.63;1.10;;;;;;;10.10;73.49;99617.31;5113550;28;42276;-81
2023/09/24 00:53:01;;;;;;;2.67;1.77;;;;;;;10.19;73.41;99640.69;5108892;28;40049;-81
2023/09/24 00:55:30;;;;;;;3.23;1.63;;;;;;;10.07;73.60;99631.53;5059881;28;40781;-82
2023/09/24 00:57:58;;;;;;;1.93;1.50;;;;;;;10.06;73.29;99634.25;5059280;28;42024;-82
2023/09/24 01:00:30;;;;;;;1.67;1.40;;;;;;;10.02;73.38;99627.38;5059344;28;42265;-81
2023/09/24 01:02:59;;;;;;;1.77;1.20;;;;;;;10.08;73.60;99642.97;5059653;28;40115;-81
2023/09/24 01:05:27;;;;;;;2.77;1.27;;;;;;;9.99;73.45;99632.84;5076210;28;41791;-81
2023/09/24 01:07:55;;;;;;;2.70;1.50;;;;;;;10.04;73.25;99647.56;5059554;28;42725;-82
2023/09/24 01:10:25;;;;;;;3.23;1.30;;;;;;;10.03;73.31;99650.25;5058982;28;41274;-81
2023/09/24 01:12:59;;;;;;;1.60;1.30;;;;;;;9.96;73.64;99639.13;5076754;28;39939;-81
2023/09/24 01:15:27;;;;;;;1.40;1.23;;;;;;;10.00;73.82;99645.16;5077008;28;41868;-81
2023/09/24 01:17:55;;;;;;;2.80;1.50;;;;;;;9.99;73.81;99652.22;5077171;28;42879;-82
2023/09/24 01:20:28;;;;;;;1.47;0.97;;;;;;;9.87;74.00;99636.06;5076988;28;41036;-82
2023/09/24 01:22:59;;;;;;;1.57;1.20;;;;;;;9.85;73.81;99640.56;5060128;28;39025;-81
2023/09/24 01:25:27;;;;;;;1.70;1.13;;;;;;;9.97;73.87;99662.00;5090485;28;41649;-80
2023/09/24 01:27:55;;;;;;;1.63;1.20;;;;;;;9.97;74.13;99656.72;5098510;28;43382;-80
2023/09/24 01:30:24;;;;;;;2.03;1.83;;;;;;;9.97;74.44;99662.00;5078866;28;42797;-81
2023/09/24 01:32:51;;;;;;;1.87;1.37;;;;;;;9.85;74.21;99651.16;5060237;28;39291;-82
2023/09/24 01:35:25;;;;;;;1.67;1.30;;;;;;;9.97;74.15;99661.16;5059582;28;40793;-82
2023/09/24 01:37:53;;;;;;;3.23;1.80;;;;;;;9.97;74.71;99666.44;5060273;28;42365;-81
2023/09/24 01:40:24;;;;;;;2.27;1.47;;;;;;;9.94;74.84;99656.00;5059748;28;42595;-81
2023/09/24 01:42:55;;;;;;;1.40;1.30;;;;;;;9.98;74.65;99658.44;5058507;28;38944;-81
2023/09/24 01:45:22;;;;;;;1.67;1.40;;;;;;;9.98;74.97;99663.75;5073973;28;41830;-81
2023/09/24 01:47:50;;;;;;;2.53;1.70;;;;;;;9.97;74.53;99666.44;5075800;28;43647;-81
2023/09/24 01:50:17;;;;;;;2.13;1.53;;;;;;;9.95;74.77;99663.88;5075808;28;43006;-80
2023/09/24 01:52:45;;;;;;;1.83;1.43;;;;;;;9.94;74.81;99672.72;5075649;28;40116;-81
2023/09/24 01:55:15;;;;;;;1.97;1.77;;;;;;;9.90;74.66;99667.66;5075510;28;41622;-82
2023/09/24 01:57:44;;;;;;;2.07;1.50;;;;;;;9.91;74.52;99672.00;5075434;28;43555;-80
2023/09/24 02:00:23;;;;;;;1.37;1.23;;;;;;;9.77;74.50;99650.66;5058070;28;41578;-82
2023/09/24 02:02:51;;;;;;;1.70;1.60;;;;;;;9.84;74.67;99678.53;5072379;28;41113;-81
2023/09/24 02:05:19;;;;;;;1.87;1.57;;;;;;;9.72;74.72;99667.59;5074998;28;42022;-81
2023/09/24 02:07:48;;;;;;;2.03;1.30;;;;;;;9.67;74.86;99656.34;5058419;28;41763;-81
2023/09/24 02:10:18;;;;;;;2.33;1.40;;;;;;;9.79;74.87;99684.03;5075458;28;40863;-81
2023/09/24 02:12:48;;;;;;;2.10;1.53;;;;;;;9.68;74.88;99676.59;5058191;28;39136;-81
2023/09/24 02:15:18;;;;;;;1.50;1.23;;;;;;;9.75;74.95;99689.53;5058126;28;41551;-81
2023/09/24 02:17:47;;;;;;;1.80;1.60;;;;;;;9.72;74.93;99691.41;5075162;28;43329;-80
2023/09/24 02:20:25;;;;;;;2.53;1.57;;;;;;;9.60;74.83;99668.16;5075821;28;42280;-80
2023/09/24 02:22:56;;;;;;;1.00;0.90;;;;;;;9.59;74.96;99682.31;5059403;28;38861;-81
2023/09/24 02:25:25;;;;;;;2.70;1.50;;;;;;;9.62;75.39;99690.09;5075584;28;41646;-80
2023/09/24 02:27:55;;;;;;;2.20;1.77;;;;;;;9.64;75.57;99690.88;5059192;28;41657;-80
2023/09/24 02:30:27;;;;;;;2.20;1.50;;;;;;;9.63;75.70;99689.19;5075959;28;42462;-80
2023/09/24 02:32:54;;;;;;;1.83;1.57;;;;;;;9.63;75.50;99698.91;5073254;28;40779;-80
2023/09/24 02:35:22;;;;;;;2.10;1.43;;;;;;;9.55;75.78;99678.06;5075930;28;41720;-81
2023/09/24 02:37:51;;;;;;;1.57;1.47;;;;;;;9.62;75.68;99692.75;5058973;28;41452;-81
2023/09/24 02:40:22;;;;;;;2.70;2.00;;;;;;;9.62;76.60;99686.59;5075468;28;42399;-81
2023/09/24 02:42:52;;;;;;;3.90;1.90;;;;;;;9.60;77.07;99681.38;5057021;28;39122;-81
2023/09/24 02:45:22;;;;;;;2.20;1.90;;;;;;;9.60;76.99;99686.66;5074781;28;40551;-81
2023/09/24 02:47:51;;;;;;;3.27;2.07;;;;;;;9.57;76.75;99704.44;5074831;28;43101;-81
2023/09/24 02:50:22;;;;;;;2.30;1.50;;;;;;;9.60;76.50;99709.59;5074127;28;42398;-80
2023/09/24 02:52:52;;;;;;;2.97;1.50;;;;;;;9.34;76.30;99674.63;5092424;28;41056;-82
2023/09/24 02:55:20;;;;;;;2.67;1.67;;;;;;;9.56;76.26;99714.16;5057992;28;40607;-80
2023/09/24 02:57:50;;;;;;;1.30;1.20;;;;;;;9.50;75.99;99717.09;5057618;28;41777;-82
2023/09/24 03:00:23;;;;;;;2.27;1.67;;;;;;;9.50;76.31;99718.88;5057297;28;41160;-81
2023/09/24 03:02:53;;;;;;;2.23;1.50;;;;;;;9.48;76.28;99721.59;5071652;28;39705;-81
2023/09/24 03:05:24;;;;;;;1.50;1.40;;;;;;;9.44;76.02;99720.00;5074864;28;41578;-81
2023/09/24 03:07:53;;;;;;;1.93;1.60;;;;;;;9.23;75.83;99686.59;5057382;28;41510;-80
2023/09/24 03:10:22;;;;;;;1.93;1.50;;;;;;;9.28;75.99;99703.09;5057103;28;41426;-81
2023/09/24 03:12:51;;;;;;;2.47;1.60;;;;;;;9.36;76.05;99723.00;5058383;28;38974;-80
2023/09/24 03:15:19;;;;;;;1.50;1.40;;;;;;;9.34;75.61;99726.63;5058163;28;41747;-80
2023/09/24 03:17:47;;;;;;;1.83;1.33;;;;;;;9.32;75.61;99731.13;5075230;28;42819;-81
2023/09/24 03:20:18;;;;;;;2.07;1.60;;;;;;;9.27;75.66;99722.53;5057934;28;42288;-81
2023/09/24 03:22:48;;;;;;;2.13;1.50;;;;;;;9.26;75.42;99724.31;5059083;28;38947;-80
2023/09/24 03:25:17;;;;;;;1.43;1.33;;;;;;;9.25;75.56;99724.38;5058308;28;40814;-81
2023/09/24 03:27:46;;;;;;;2.73;1.33;;;;;;;9.22;75.44;99741.22;5075260;28;43738;-80
2023/09/24 03:30:17;;;;;;;2.03;1.47;;;;;;;9.21;75.40;99743.94;5075184;28;43378;-81
2023/09/24 03:32:46;;;;;;;1.47;1.20;;;;;;;9.19;75.35;99745.78;5075297;28;40154;-80
2023/09/24 03:35:14;;;;;;;2.03;1.60;;;;;;;9.15;75.40;99755.59;5057965;28;40766;-80
2023/09/24 03:37:48;;;;;;;1.60;1.20;;;;;;;9.04;75.49;99741.13;5058062;28;42065;-80
2023/09/24 03:40:18;;;;;;;1.90;1.40;;;;;;;8.97;75.60;99741.41;5074716;28;42418;-80
2023/09/24 03:42:46;;;;;;;1.70;1.60;;;;;;;9.05;76.60;99749.00;5073346;28;41531;-80
2023/09/24 03:45:15;;;;;;;2.70;1.87;;;;;;;9.09;78.57;99750.59;5073826;28;40652;-80
2023/09/24 03:47:45;;;;;;;3.67;1.93;;;;;;;8.78;79.42;99697.34;5073890;28;43666;-80
2023/09/24 03:50:14;;;;;;;2.37;2.17;;;;;;;9.09;78.75;99760.31;5091569;28;42413;-81
2023/09/24 03:52:43;;;;;;;2.40;1.60;;;;;;;9.06;78.46;99760.44;5073893;28;39594;-80
2023/09/24 03:55:13;;;;;;;2.43;2.17;;;;;;;9.08;78.33;99771.81;5076347;28;41622;-81
2023/09/24 03:57:41;;;;;;;1.70;1.60;;;;;;;8.69;78.21;99703.84;5095562;28;42468;-81
2023/09/24 04:00:15;;;;;;;4.10;2.70;;;;;;;9.12;78.39;99770.75;5094226;28;42312;-82
2023/09/24 04:02:47;;;;;;;2.50;2.30;;;;;;;9.18;78.68;99781.06;5077238;28;38802;-80
2023/09/24 04:05:17;;;;;;;2.93;2.27;;;;;;;9.25;78.89;99772.81;5076350;28;41822;-81
2023/09/24 04:07:46;;;;;;;3.57;2.17;;;;;;;9.31;78.73;99775.19;5060441;28;43437;-80
2023/09/24 04:10:15;;;;;;;2.40;2.20;;;;;;;9.23;78.59;99757.94;5077083;28;42449;-81
2023/09/24 04:12:43;;;;;;;2.70;1.97;;;;;;;9.40;78.83;99786.28;5077667;28;38866;-81
2023/09/24 04:15:11;;;;;;;1.67;1.53;;;;;;;9.06;78.50;99713.72;5077960;28;40696;-80
2023/09/24 04:17:39;;;;;;;2.00;1.60;;;;;;;9.48;78.66;99784.19;5061216;28;41921;-80
2023/09/24 04:20:10;;;;;;;2.47;2.10;;;;;;;9.41;78.96;99773.00;5078090;28;41209;-80
2023/09/24 04:22:38;;;;;;;2.00;1.80;;;;;;;9.56;78.59;99792.63;5078424;28;39233;-80
2023/09/24 04:25:06;;;;;;;1.90;1.53;;;;;;;9.54;78.65;99787.41;5094726;28;42564;-80
2023/09/24 04:27:35;;;;;;;1.93;1.80;;;;;;;9.65;78.54;99798.38;5060906;28;42911;-80
2023/09/24 04:30:05;;;;;;;1.97;1.80;;;;;;;9.64;78.77;99791.38;5095371;28;42428;-80
2023/09/24 04:32:32;;;;;;;1.70;1.47;;;;;;;9.39;78.45;99743.16;5077779;28;41140;-80
2023/09/24 04:35:00;;;;;;;1.90;1.80;;;;;;;9.85;78.78;99809.88;5095540;28;41354;-80
2023/09/24 04:37:27;;;;;;;2.20;2.00;;;;;;;9.90;78.80;99807.88;5077668;28;41939;-80
2023/09/24 04:39:55;;;;;;;3.63;2.63;;;;;;;9.93;78.86;99808.63;5095599;28;42204;-80
2023/09/24 04:42:22;;;;;;;2.97;2.10;;;;;;;9.62;79.51;99752.72;5094601;28;39973;-79
2023/09/24 04:44:51;;;;;;;3.50;2.50;;;;;;;9.94;79.42;99806.81;5086130;28;42284;-79
2023/09/24 04:47:19;;;;;;;2.87;2.37;;;;;;;9.97;79.86;99819.94;5084825;28;40989;-81
2023/09/24 04:49:46;;;;;;;4.03;2.30;;;;;;;9.95;79.63;99829.72;5076587;28;42356;-80
2023/09/24 04:52:14;;;;;;;3.07;2.37;;;;;;;9.92;79.80;99824.56;5094609;28;39675;-81
2023/09/24 04:54:41;;;;;;;2.80;2.07;;;;;;;9.75;79.92;99798.00;5075616;28;41392;-80
2023/09/24 04:57:09;;;;;;;2.43;2.23;;;;;;;9.92;79.86;99832.50;5094682;28;43194;-80
2023/09/24 04:59:37;;;;;;;2.83;2.53;;;;;;;9.90;80.43;99829.91;5059374;28;42453;-80
2023/09/24 05:02:06;;;;;;;3.40;2.67;;;;;;;9.75;81.76;99814.72;5076293;28;40325;-80
2023/09/24 05:04:33;;;;;;;3.50;2.80;;;;;;;9.86;81.89;99846.88;5094325;28;41982;-81
2023/09/24 05:07:01;;;;;;;2.97;2.17;;;;;;;9.78;82.24;99824.28;5059400;28;41501;-80
2023/09/24 05:09:30;;;;;;;4.37;2.83;;;;;;;9.82;82.57;99839.97;5076135;28;42073;-81
2023/09/24 05:11:57;;;;;;;2.97;2.50;;;;;;;9.82;81.84;99853.22;5075809;28;39542;-81
2023/09/24 05:14:25;;;;;;;3.00;2.70;;;;;;;9.76;82.20;99864.06;5060063;28;40792;-81
2023/09/24 05:16:52;;;;;;;2.97;2.27;;;;;;;9.41;81.83;99810.00;5059800;28;42739;-80
2023/09/24 05:19:22;;;;;;;2.50;2.30;;;;;;;9.68;81.94;99866.16;5076473;28;42424;-80
2023/09/24 05:21:49;;;;;;;2.77;2.20;;;;;;;9.62;81.61;99867.31;5059532;28;40986;-80
2023/09/24 05:24:17;;;;;;;2.57;2.10;;;;;;;9.54;81.87;99874.69;5060328;28;40513;-80
2023/09/24 05:26:45;;;;;;;2.27;2.00;;;;;;;9.35;81.71;99864.03;5076448;28;43406;-80
2023/09/24 05:29:12;;;;;;;1.90;1.77;;;;;;;9.43;81.64;99879.56;5076849;28;42494;-80
2023/09/24 05:31:40;;;;;;;2.73;2.00;;;;;;;9.49;81.72;99878.47;5059558;28;39354;-80
2023/09/24 05:34:08;;;;;;;1.50;1.40;;;;;;;9.52;81.58;99887.09;5076726;28;40945;-80
2023/09/24 05:36:37;;;;;;;2.07;1.70;;;;;;;9.53;81.58;99878.25;5076186;28;41891;-80
2023/09/24 05:39:04;;;;;;;2.00;1.80;;;;;;;9.59;81.59;99888.59;5059754;28;41337;-80
2023/09/24 05:41:32;;;;;;;2.90;2.50;;;;;;;9.60;81.20;99895.59;5075514;28;40173;-81
2023/09/24 05:44:04;;;;;;;2.37;1.77;;;;;;;9.62;81.75;99892.88;5057400;28;40786;-80
2023/09/24 05:46:32;;;;;;;2.03;1.90;;;;;;;9.55;81.38;99879.03;5074769;28;43496;-80
2023/09/24 05:49:00;;;;;;;2.30;2.10;;;;;;;9.67;81.34;99901.47;5075234;28;42523;-80
2023/09/24 05:51:28;;;;;;;2.43;2.23;;;;;;;9.60;81.17;99885.00;5075145;28;39977;-79
2023/09/24 05:53:56;;;;;;;2.83;2.20;;;;;;;9.71;80.83;99898.66;5090582;28;41780;-80
2023/09/24 05:56:24;;;;;;;4.20;2.20;;;;;;;9.50;80.91;99862.53;5094804;28;41671;-80
2023/09/24 05:58:52;;;;;;;2.80;2.60;;;;;;;9.82;81.07;99905.25;5112621;28;41401;-80
2023/09/24 06:01:19;;;;;;;2.83;2.37;;;;;;;9.83;80.64;99902.56;5094933;28;40302;-81
2023/09/24 06:03:47;;;;;;;1.93;1.60;;;;;;;9.90;80.63;99913.72;5113710;27;41766;-80
2023/09/24 06:06:14;;;;;;;2.30;2.00;;;;;;;9.92;80.53;99920.66;5112114;28;42674;-81
2023/09/24 06:08:43;;;;;;;1.93;1.80;;;;;;;9.96;80.69;99909.03;5113330;28;42226;-80
2023/09/24 06:11:12;;;;;;;2.10;1.90;;;;;;;9.95;80.27;99906.47;5112267;28;41621;-81
2023/09/24 06:13:39;;;;;;;2.53;2.03;;;;;;;10.01;80.27;99906.22;5114236;28;41807;-80
2023/09/24 06:16:07;;;;;;;3.37;2.47;;;;;;;10.19;80.48;99920.44;5113100;28;42773;-80
2023/09/24 06:18:35;;;;;;;2.50;2.20;;;;;;;10.27;80.31;99919.16;5112767;28;42312;-80
2023/09/24 06:21:04;;;;;;;2.63;2.23;;;;;;;10.36;80.37;99929.38;5112983;28;40006;-80
2023/09/24 06:23:32;;;;;;;2.67;2.47;;;;;;;10.47;80.08;99914.78;5096028;28;40852;-81
2023/09/24 06:26:00;;;;;;;2.30;2.10;;;;;;;10.56;80.16;99925.81;5096115;28;43758;-80
2023/09/24 06:28:29;;;;;;;2.57;2.23;;;;;;;10.69;79.98;99926.97;5094461;28;41051;-81
2023/09/24 06:31:00;;;;;;;3.90;2.83;;;;;;;10.81;79.97;99928.19;5095116;28;40137;-80
2023/09/24 06:33:27;;;;;;;2.97;2.50;;;;;;;11.00;79.53;99941.47;5111591;27;41927;-81
2023/09/24 06:35:55;;;;;;;3.10;2.60;;;;;;;11.10;79.97;99917.09;5094669;28;42030;-81
2023/09/24 06:38:22;;;;;;;2.87;2.57;;;;;;;11.34;79.30;99938.06;5094791;28;42403;-80
2023/09/24 06:40:57;;;;;;;4.10;2.53;;;;;;;11.46;79.45;99932.16;5112655;28;41029;-80
2023/09/24 06:43:26;;;;;;;3.80;2.33;;;;;;;11.52;78.91;99937.16;5108857;28;41832;-81
2023/09/24 06:45:56;;;;;;;3.00;2.80;;;;;;;11.76;79.34;99949.25;5111415;28;43144;-81
2023/09/24 06:48:23;;;;;;;3.63;2.87;;;;;;;11.95;79.39;99953.63;5094280;28;41436;-80
2023/09/24 06:50:51;;;;;;;4.10;2.90;;;;;;;12.04;78.73;99938.09;5112782;28;40060;-80
2023/09/24 06:53:19;;;;;;;5.80;3.50;;;;;;;12.30;78.60;99946.50;5110927;28;40693;-81
2023/09/24 06:55:47;;;;;;;7.17;3.70;;;;;;;12.33;77.82;99936.59;5112789;28;42802;-80
2023/09/24 06:58:15;;;;;;;4.10;3.30;;;;;;;12.76;77.31;99951.09;5111128;28;42371;-81
2023/09/24 07:00:42;;;;;;;4.60;3.20;;;;;;;12.99;76.42;99955.16;5111031;27;40972;-81
2023/09/24 07:03:11;;;;;;;4.07;3.03;;;;;;;13.17;76.24;99942.69;5111334;28;41880;-80
2023/09/24 07:05:38;;;;;;;3.43;3.07;;;;;;;13.32;74.34;99957.81;5111150;27;42626;-82
2023/09/24 07:08:07;;;;;;;2.97;2.70;;;;;;;13.47;74.51;99950.75;5113372;27;20226;-82
2023/09/24 07:10:35;;;;;;;3.10;2.80;;;;;;;14.26;73.91;99954.94;5112105;28;40003;-81
2023/09/24 07:13:03;;;;;;;3.83;3.00;;;;;;;15.56;70.93;99971.72;5113071;28;41966;-81
2023/09/24 07:15:31;;;;;;;3.43;2.60;;;;;;;17.54;66.53;99976.66;5094891;28;41577;-82
2023/09/24 07:17:59;;;;;;;3.70;2.67;;;;;;;18.99;60.14;100012.94;5094988;28;41337;-81
2023/09/24 07:20:28;;;;;;;3.30;2.70;;;;;;;19.71;56.77;100016.06;5111432;28;38771;-83
2023/09/24 07:22:56;;;;;;;3.27;2.20;;;;;;;20.25;55.91;99990.97;5111799;28;41861;-82
2023/09/24 07:25:24;;;;;;;2.50;2.30;;;;;;;20.99;54.39;100026.78;5111706;28;43102;-81
2023/09/24 07:27:51;;;;;;;2.33;2.13;;;;;;;21.47;51.88;100026.16;5094801;28;41567;-83
2023/09/24 07:30:19;;;;;;;3.60;2.27;;;;;;;22.14;50.03;100047.91;5111038;28;39913;-82
2023/09/24 07:32:48;;;;;;;2.80;2.33;;;;;;;23.04;48.19;100058.41;5110569;28;42567;-80
2023/09/24 07:35:15;;;;;;;2.53;2.33;;;;;;;24.19;45.58;100062.44;5110017;28;42824;-82
2023/09/24 07:37:44;;;;;;;2.40;2.20;;;;;;;24.28;44.88;100077.78;5093390;28;41486;-81
2023/09/24 07:40:13;;;;;;;2.67;2.40;;;;;;;23.33;45.45;100052.06;5093111;28;42767;-82
2023/09/24 07:42:41;;;;;;;2.33;2.13;;;;;;;22.76;46.26;100048.50;5110562;28;40382;-82
2023/09/24 07:45:09;;;;;;;2.10;1.80;;;;;;;22.04;47.08;100035.41;5110014;28;42580;-82
2023/09/24 07:47:38;;;;;;;2.47;2.27;;;;;;;21.53;47.73;100036.38;5111364;28;42337;-80
2023/09/24 07:50:06;;;;;;;2.30;1.63;;;;;;;20.73;49.47;100025.47;5093226;28;39588;-82
2023/09/24 07:52:33;;;;;;;2.10;1.97;;;;;;;20.38;51.16;100032.03;5111657;28;41702;-81
2023/09/24 07:55:03;;;;;;;2.50;2.30;;;;;;;19.92;52.41;100023.34;5110095;28;43465;-80
2023/09/24 07:57:30;;;;;;;2.30;1.97;;;;;;;19.62;53.61;100006.09;5110298;27;42681;-82
2023/09/24 07:59:58;;;;;;;3.07;2.00;;;;;;;19.38;54.28;100010.72;5111505;28;40154;-79
2023/09/24 08:02:26;;;;;;;2.90;2.13;;;;;;;19.24;54.73;100009.16;5108541;28;40912;-81
2023/09/24 08:04:53;;;;;;;2.30;2.10;;;;;;;19.37;54.26;100000.97;5120276;28;43154;-83
2023/09/24 08:07:21;;;;;;;2.50;2.17;;;;;;;19.77;53.92;99987.00;5110531;28;42660;-81
2023/09/24 08:09:49;;;;;;;2.00;1.90;;;;;;;20.42;53.43;100000.31;5110440;28;38705;-84
2023/09/24 08:12:18;;;;;;;3.00;2.20;;;;;;;21.30;51.35;100024.94;5093409;28;41062;-81
2023/09/24 08:14:47;;;;;;;2.80;1.83;;;;;;;21.58;51.86;100017.97;5110694;28;41837;-81
2023/09/24 08:17:15;;;;;;;3.57;1.97;;;;;;;22.15;50.34;100027.16;5094507;28;40795;-81
2023/09/24 08:19:43;;;;;;;2.43;1.90;;;;;;;22.36;48.97;100036.00;5111210;28;39256;-84
2023/09/24 08:22:10;;;;;;;2.20;2.00;;;;;;;23.17;47.76;100023.78;5094168;28;40935;-84
2023/09/24 08:24:38;;;;;;;1.90;1.80;;;;;;;24.86;44.74;100049.31;5094254;28;42892;-81
2023/09/24 08:27:05;;;;;;;2.83;1.50;;;;;;;26.40;40.75;100080.81;5094060;28;41291;-85
2023/09/24 08:29:34;;;;;;;1.60;1.43;;;;;;;27.14;39.72;100084.44;5111196;28;39806;-84
2023/09/24 08:32:02;;;;;;;1.60;1.47;;;;;;;27.67;37.32;100102.88;5111355;28;41894;-82
2023/09/24 08:34:29;;;;;;;2.00;1.53;;;;;;;29.07;35.93;100107.31;5110991;28;41714;-82
2023/09/24 08:36:57;;;;;;;1.80;1.60;;;;;;;30.59;33.05;100132.22;5093776;28;41388;-84
2023/09/24 08:39:25;;;;;;;2.03;1.50;;;;;;;31.95;31.45;100140.09;5112435;27;40922;-85
2023/09/24 08:41:54;;;;;;;1.80;1.60;;;;;;;32.29;31.37;100131.00;5113025;28;42889;-84
2023/09/24 08:44:25;;;;;;;2.27;1.53;;;;;;;32.43;30.70;100133.56;5113120;28;41695;-84
2023/09/24 08:46:55;;;;;;;1.63;1.53;;;;;;;32.08;30.17;100134.69;5113509;28;42726;-85
2023/09/24 08:49:22;;;;;;;1.87;1.57;;;;;;;31.48;31.31;100114.28;5114671;28;40128;-85
2023/09/24 08:51:51;;;;;;;1.77;1.60;;;;;;;30.92;32.14;100125.16;5113155;28;41738;-83
2023/09/24 08:54:19;;;;;;;1.80;1.40;;;;;;;30.83;31.17;100109.09;5095826;28;41884;-85
2023/09/24 08:56:46;;;;;;;2.90;1.80;;;;;;;31.20;30.78;100113.44;5096127;28;42469;-85
2023/09/24 08:59:14;;;;;;;1.63;1.53;;;;;;;31.33;30.19;100121.75;5113732;28;40198;-83
2023/09/24 09:01:42;;;;;;;1.63;1.53;;;;;;;31.87;29.93;100129.31;5095632;28;41643;-85
2023/09/24 09:04:10;;;;;;;1.90;1.67;;;;;;;31.29;30.66;100123.19;5095943;28;42934;-85
2023/09/24 09:06:38;;;;;;;2.00;1.40;;;;;;;30.70;31.00;100104.34;5112888;28;42087;-82
2023/09/24 09:09:06;;;;;;;2.17;1.40;;;;;;;30.48;31.46;100091.66;5096195;28;39076;-83
2023/09/24 09:11:40;;;;;;;1.90;1.63;;;;;;;29.99;32.44;100114.22;5095494;28;40884;-83
2023/09/24 09:14:09;;;;;;;2.10;1.63;;;;;;;28.99;33.95;100044.66;5097647;28;42092;-81
2023/09/24 09:16:55;;;;;;;1.87;1.63;;;;;;;28.37;34.46;100091.16;5113686;28;41036;-81
2023/09/24 09:19:24;;;;;;;3.00;1.33;;;;;;;27.58;35.72;100086.72;5114192;28;40393;-83
2023/09/24 09:21:52;;;;;;;1.80;1.60;;;;;;;26.91;37.00;100064.38;5114772;27;41690;-83
2023/09/24 09:24:22;;;;;;;1.83;1.70;;;;;;;26.42;37.64;100061.66;5113799;28;41921;-81
2023/09/24 09:26:54;;;;;;;2.90;1.63;;;;;;;26.18;37.03;100075.16;5096208;28;42403;-84
2023/09/24 09:29:22;;;;;;;1.70;1.60;;;;;;;25.93;39.30;100056.09;5111206;28;40791;-82
2023/09/24 09:31:50;;;;;;;1.80;1.43;;;;;;;25.70;38.93;100055.00;5113265;28;41787;-82
2023/09/24 09:34:18;;;;;;;1.27;1.17;;;;;;;25.62;40.19;100035.94;5115263;28;42682;-81
2023/09/24 09:36:48;;;;;;;1.53;1.43;;;;;;;25.62;39.46;100038.66;5113472;28;42948;-81
2023/09/24 09:39:15;;;;;;;2.50;1.70;;;;;;;25.70;38.91;100055.84;5096520;28;39065;-80
2023/09/24 09:41:44;;;;;;;1.60;1.50;;;;;;;25.37;40.11;100033.09;5112541;28;40687;-85
2023/09/24 09:44:14;;;;;;;2.13;1.70;;;;;;;25.29;41.72;100035.75;5113496;28;42902;-83
2023/09/24 09:46:45;;;;;;;1.30;1.20;;;;;;;25.22;40.87;100039.28;5095097;28;41312;-85
2023/09/24 09:49:14;;;;;;;2.43;1.70;;;;;;;24.99;41.22;100022.69;5095582;28;40648;-82
2023/09/24 09:51:45;;;;;;;2.57;1.57;;;;;;;24.94;40.54;100033.19;5110727;27;40920;-82
2023/09/24 09:54:15;;;;;;;2.40;1.33;;;;;;;24.66;41.34;100011.59;5111123;28;42825;-82
2023/09/24 09:56:43;;;;;;;1.20;1.10;;;;;;;24.82;41.80;100026.28;5112999;27;42582;-84
2023/09/24 09:59:11;;;;;;;1.43;1.33;;;;;;;24.99;43.00;100018.13;5095370;28;39383;-83
2023/09/24 10:01:38;;;;;;;2.20;1.50;;;;;;;24.97;41.16;100038.28;5111908;28;41841;-81
2023/09/24 10:04:08;;;;;;;1.50;1.40;;;;;;;24.79;41.36;100018.47;5094875;28;41690;-82
2023/09/24 10:06:39;;;;;;;1.93;1.40;;;;;;;25.40;41.64;100021.06;5112584;28;42379;-82
2023/09/24 10:09:39;;;;;;;1.77;1.23;;;;;;;26.32;39.34;100040.09;5111884;28;38928;-82
2023/09/24 10:12:08;;;;;;;1.57;1.23;;;;;;;26.79;37.82;100036.69;5111934;28;41760;-82
2023/09/24 10:14:37;;;;;;;2.57;1.30;;;;;;;26.89;38.29;100052.81;5112938;28;41689;-82
2023/09/24 10:17:27;;;;;;;1.13;1.10;;;;;;;27.31;37.20;100048.03;5095528;28;41342;-83
2023/09/24 10:19:56;;;;;;;1.47;1.20;;;;;;;28.39;35.53;100043.63;5112278;28;40815;-83
2023/09/24 10:22:25;;;;;;;3.37;1.30;;;;;;;30.30;32.35;100054.66;5095371;28;40649;-82
2023/09/24 10:24:54;;;;;;;1.60;1.17;;;;;;;32.69;28.40;100110.00;5095229;28;42985;-82
2023/09/24 10:27:27;;;;;;;1.97;1.10;;;;;;;34.35;27.27;100108.78;5113948;27;43572;-83
2023/09/24 10:30:10;;;;;;;1.42;1.10;;;;;;;35.61;26.52;100112.25;5095144;28;39052;-82
2023/09/24 10:32:45;;;;;;;1.27;0.82;;;;;;;36.48;25.31;100119.31;5112671;28;42010;-82
2023/09/24 10:35:13;;;;;;;2.97;1.17;;;;;;;37.50;24.34;100113.66;5111883;28;42153;-83
2023/09/24 10:38:10;;;;;;;2.25;0.90;;;;;;;38.07;23.65;100110.03;5095092;28;41789;-83
2023/09/24 10:41:06;;;;;;;2.00;1.08;;;;;;;38.05;22.99;100106.66;5013557;28;39700;-82
2023/09/24 10:43:34;;;;;;;1.30;1.20;;;;;;;37.63;23.61;100105.16;5107978;27;41938;-82
2023/09/24 10:46:28;;;;;;;1.38;1.27;;;;;;;36.92;23.91;100109.75;5112220;28;43087;-83
2023/09/24 10:48:56;;;;;;;1.83;0.93;;;;;;;36.83;23.61;100093.78;5112431;28;43306;-82
2023/09/24 10:51:24;;;;;;;1.77;1.30;;;;;;;36.68;24.27;100097.78;5110745;28;40993;-81
2023/09/24 10:53:51;;;;;;;1.00;0.90;;;;;;;36.68;25.05;100078.47;5103271;28;41842;-82
2023/09/24 10:56:20;;;;;;;1.88;1.00;;;;;;;35.63;24.53;100088.06;5073422;28;41655;-81
2023/09/24 10:58:49;;;;;;;1.33;0.90;;;;;;;34.15;25.33;100067.56;5073827;28;42840;-82
2023/09/24 11:01:17;;;;;;;2.63;1.33;;;;;;;32.92;26.82;100054.75;5073414;28;39029;-81
2023/09/24 11:03:45;;;;;;;1.50;1.23;;;;;;;32.52;26.82;100064.84;5073086;28;43553;-82
2023/09/24 11:06:12;;;;;;;2.87;1.30;;;;;;;33.18;26.47;100058.31;5073242;28;41898;-82
2023/09/24 11:08:42;;;;;;;1.80;1.20;;;;;;;32.05;27.37;99998.03;5073002;28;42301;-82
2023/09/24 11:11:10;;;;;;;1.40;0.90;;;;;;;33.97;26.09;100012.50;5091448;28;41928;-82
2023/09/24 11:13:39;;;;;;;1.17;1.00;;;;;;;36.63;23.90;100023.09;5057053;28;40727;-82
2023/09/24 11:16:07;;;;;;;1.13;1.00;;;;;;;39.10;20.49;100056.31;5074346;28;43952;-81
2023/09/24 11:18:35;;;;;;;0.82;0.70;;;;;;;41.00;19.16;100052.81;5061669;28;42397;-82
2023/09/24 11:21:04;;;;;;;1.45;1.00;;;;;;;42.30;17.45;100063.00;5058721;28;39479;-83
2023/09/24 11:23:37;;;;;;;1.15;0.80;;;;;;;43.45;17.04;100096.00;5074599;28;42907;-82
2023/09/24 11:26:05;;;;;;;0.80;0.60;;;;;;;43.91;16.76;100065.19;5057133;28;42122;-82
2023/09/24 11:28:33;;;;;;;0.90;0.68;;;;;;;43.42;17.92;100073.41;5074697;28;43634;-83
2023/09/24 11:31:02;;;;;;;1.33;0.57;;;;;;;42.03;19.67;100056.84;5092523;28;40069;-82
2023/09/24 11:33:30;;;;;;;1.75;0.70;;;;;;;40.81;18.64;100025.44;5074141;28;42761;-82
2023/09/24 11:35:58;;;;;;;6.82;0.73;;;;;;;40.18;20.17;100007.56;5057336;28;43010;-83
2023/09/24 11:38:30;;;;;;;0.70;0.70;;;;;;;41.33;19.28;100054.47;5092323;28;42336;-82
2023/09/24 11:41:09;;;;;;;1.60;0.77;;;;;;;42.63;17.60;100022.72;5056996;28;39384;-81
2023/09/24 11:43:37;;;;;;;0.68;0.68;;;;;;;43.89;16.74;100045.94;5090407;28;43078;-82